Saint Michaels, Maryland
Current Conditions -  °F | °C
As of 9:50 AM on Monday 22 Dec 2014 (Local Time) from KESN Reporting Station
Overcast Overcast  
Wind Chill: 31°   Ceiling: 4600
Heat Index: 36°   Visibility: 10mi
Dew Point: 32°   Wind: 6mph
Humidity: 87%   Direction: 30°NNE
Pressure: 30.34"   Gusts: NA
Location:  38.79°N, 76.22°W
Report Text: KESN 221450Z 03005KT 10SM OVC046 02/00 A3034
Loading
Personal Weather Stations






























Interactive Weather Map New forecast layout! Learn more

10-Day Weather Forecast

Advertisements
Track Severe Weather on mobile